AirNav   Everest Fuels
 
 850 users online  

NC03 Darr Field Airport
High Point, North Carolina, USA

GOING TO HIGH POINT?


FAA INFORMATION EFFECTIVE 03 NOVEMBER 2022

Location

FAA Identifier: NC03
Lat/Long: 35-54-24.8200N 079-59-23.3500W
35-54.413667N 079-59.389167W
35.9068944,-79.9898194
(estimated)
Elevation: 874 ft. / 266 m (estimated)
Variation: 06W (1985)
From city: 3 miles S of HIGH POINT, NC
Time zone: UTC -5 (UTC -4 during Daylight Saving Time)
Zip code: 27263

Airport Operations

Airport use: Private use. Permission required prior to landing
Activation date: 01/1958
Control tower: no
ARTCC: ATLANTA CENTER
FSS: RALEIGH FLIGHT SERVICE STATION
Attendance: MON-FRI 0800-1700
Wind indicator: yes
Segmented circle: no

Airport Communications

WX ASOS at GSO (12 nm N): 128.55 (336-393-0168)
WX AWOS-3 at HBI (16 nm S): 119.275 (336-626-7933)
WX AWOS-3 at EXX (17 nm SW): 119.825 (336-956-2967)
WX ASOS at INT (18 nm NW): PHONE 336-661-3096

Nearby radio navigation aids

VOR radial/distance  VOR name  Freq  Var
GSOr187/8.4GREENSBORO VORTAC116.2003W
LIBr290/19.2LIBERTY VORTAC113.0003W

 
NDB name  Hdg/Dist  Freq  Var  ID
REENO146/13.131707WIN .. -.
SLAMMER208/30.542307WSIF ... .. ..-.

Airport Services

Parking: tiedowns
Airframe service: NONE
Powerplant service: NONE
Bottled oxygen: NONE
Bulk oxygen: NONE

Runway Information

Runway 13/31

Dimensions: 2700 x 60 ft. / 823 x 18 m
Surface: turf/gravel, in good condition
OUTER 20' ON EACH SIDE OF RWY IS TURF. CENTER 20' IS SAND & ROCK. FIRST 300' RWY 13 IS ROUGH.
RUNWAY 13  RUNWAY 31
Traffic pattern: leftleft
Obstructions: 25 ft. rr, 70 ft. right of centerline45 ft. trees, 80 ft. left of centerline
PLINE +20'; 200 FROM THR; 0 BOTH.

Airport Ownership and Management from official FAA records

Ownership: Privately-owned
Owner: HIGH POINT TRINITY AIR SERVICE
PO BOX 7163
HIGH POINT, NC 27264
Phone 336-431-9158
Manager: JACOB L. DARR
100 SEALY DR
TRINITY, NC 27370
Phone (336) 442-0332

Airport Operational Statistics

Aircraft based on the field: 35
Single engine airplanes: 34
Multi engine airplanes: 1
    
Aircraft operations: avg 69/week *
50% transient general aviation
50% local general aviation
* for 12-month period ending 08 April 1991

Additional Remarks

DEER ON & INVOF ARPT.
FOR CD CTC ATLANTA ARTCC AT 770-210-7692.

Instrument Procedures

There are no published instrument procedures at NC03.

Some nearby airports with instrument procedures:

KGSO - Piedmont Triad International Airport (12 nm N)
KHBI - Asheboro Regional Airport (16 nm S)
KEXX - Davidson County Airport (17 nm SW)
KINT - Smith Reynolds Airport (18 nm NW)
2A5 - Causey Airport (18 nm E)
 
Loc | Ops | Rwys | IFR | FBO | Links
Com | Nav | Svcs | Stats | Notes
Area around NC03 (Darr Field Airport)
 
Road maps at: MapQuest Bing Google
 
Aerial photo
No photo
 
Sectional chart

 
Airport distance calculator
Flying to Darr Field Airport? Find the distance to fly.

From to NC03

Sunrise and sunset
Times for 28-Nov-2022
 Local
(UTC-5)
 Zulu
(UTC)
Morning civil twilight06:4211:42
Sunrise07:1012:10
Sunset17:0622:06
Evening civil twilight17:3422:34

Current date and time
Zulu (UTC)  28-Nov-2022 13:07:17
Local (UTC-5)  28-Nov-2022 08:07:17
 
METAR
KGSO 
12nm N 
281254Z 27006KT 10SM BKN049 BKN250 11/05 A2984 RMK AO2 SLP102 T01060050
KHBI 
16nm S 
281255Z AUTO 19003KT 10SM CLR 08/06 A2989 RMK AO2 T00780058
KEXX 
17nm SW 
281255Z AUTO 00000KT 10SM CLR 06/06 A2986 RMK AO2 T00570057
KINT 
17nm NW 
281254Z 21003KT 10SM BKN049 11/04 A2986 RMK AO2 SLP106 T01110044
TAF
KGSO 
12nm N 
281150Z 2812/2912 25008KT P6SM SCT025 SCT250 FM281400 30008G16KT P6SM BKN040 FM282200 31006KT P6SM BKN250
KINT 
17nm NW 
281150Z 2812/2912 27006KT P6SM SCT025 SCT050 FM281400 30008G16KT P6SM BKN050 FM282100 33004KT P6SM BKN250
NOTAMs
Click for the latest NOTAMs
NOTAMs are issued by the DoD/FAA and will open in a separate window not controlled by AirNav.

 

 
 

Would you like to see your business listed on this page?

 If your business provides an interesting product or service to pilots, flight crews, aircraft, or users of the Darr Field Airport, you should consider listing it here.  To start the listing process, click on the button below
 
Add a business
 

Other Pages about Darr Field Airport

Update a link
 
Copyright © AirNav, LLC. All rights reserved. Privacy Policy  Contact